Time;durP1;ratioP1;P1;durP2;ratioP2;P2;SDS_P1;SDS_P2;PMS_P1;PMS_P2;Temp;Humidity;BMP_temperature;BMP_pressure;BME280_temperature;BME280_humidity;BME280_pressure;Samples;Min_cycle;Max_cycle;Signal;HPM_P1;HPM_P2
2022/04/10 06:41:51;;;;;;;;;29.00;26.50;;;;;6.08;57.06;101887.00;6273651;22;44671;-92
2022/04/10 07:05:43;;;;;;;;;30.50;27.00;;;;;6.36;56.74;101889.69;6165140;22;46954;-92
2022/04/10 07:08:09;;;;;;;;;34.00;31.50;;;;;6.17;57.01;101846.38;6255192;22;45301;-96
2022/04/10 07:10:56;;;;;;;;;;;;;;;;;;;;;
2022/04/10 07:13:22;;;;;;;;;73.00;60.25;;;;;6.42;56.63;101872.41;6225484;22;74344;-95
2022/04/10 07:16:09;;;;;;;;;;;;;;;;;;;;;
2022/04/10 07:19:11;;;;;;;;;;;;;;;;;;;;;
2022/04/10 07:27:09;;;;;;;;;30.25;26.75;;;;;6.71;56.64;101870.66;6166914;22;46237;-93
2022/04/10 07:43:33;;;;;;;;;32.75;32.25;;;;;7.12;56.66;101856.19;5930325;24;45361;-92
2022/04/10 08:36:06;;;;;;;;;39.25;35.00;;;;;9.48;53.27;101860.88;6279771;22;45421;-89
2022/04/10 08:39:37;;;;;;;;;39.00;36.75;;;;;9.65;52.89;101871.72;6106656;23;45218;-89
2022/04/10 08:42:28;;;;;;;;;37.50;33.00;;;;;9.71;52.55;101853.44;6015013;23;44869;-88
2022/04/10 08:48:31;;;;;;;;;;;;;;;;;;;;;
2022/04/10 08:50:58;;;;;;;;;32.50;30.25;;;;;10.11;51.14;101878.66;6002294;23;68481;-92
2022/04/10 08:53:25;;;;;;;;;29.75;27.25;;;;;10.20;50.43;101877.03;6108772;23;44813;-91
2022/04/10 08:58:40;;;;;;;;;25.25;24.25;;;;;10.42;49.42;101870.41;6172632;22;44722;-93
2022/04/10 09:01:14;;;;;;;;;29.50;28.25;;;;;10.56;49.35;101866.25;6275946;22;44807;-92
2022/04/10 09:03:43;;;;;;;;;33.25;28.00;;;;;10.71;49.05;101865.56;6272246;22;44803;-91
2022/04/10 09:06:21;;;;;;;;;25.00;19.00;;;;;10.83;48.65;101871.00;6274512;22;47736;-93
2022/04/10 09:09:20;;;;;;;;;10.25;9.75;;;;;10.89;47.77;101865.81;6276708;22;44725;-89
2022/04/10 09:11:50;;;;;;;;;20.50;19.75;;;;;11.02;47.05;101865.09;6301954;22;44708;-93
2022/04/10 09:14:55;;;;;;;;;18.75;16.50;;;;;11.03;46.76;101853.69;6275396;22;45686;-89
2022/04/10 09:17:32;;;;;;;;;14.25;12.75;;;;;11.17;46.30;101860.88;6124402;23;46819;-91
2022/04/10 09:20:00;;;;;;;;;10.25;8.75;;;;;11.26;45.28;101864.50;6124467;23;44750;-93
2022/04/10 09:22:36;;;;;;;;;13.00;10.75;;;;;11.30;44.94;101862.78;6124844;23;44791;-89
2022/04/10 09:28:19;;;;;;;;;9.25;8.50;;;;;11.39;44.57;101855.00;6259302;22;45122;-91
2022/04/10 09:30:45;;;;;;;;;9.00;9.00;;;;;11.41;43.77;101863.81;6265082;22;45452;-80
2022/04/10 09:37:32;;;;;;;;;;;;;;;;;;;;;
2022/04/10 09:41:14;;;;;;;;;;;;;;;;;;;;;
2022/04/10 10:02:09;;;;;;;;;;;;;;;;;;;;;
2022/04/10 10:05:26;;;;;;;;;;;;;;;;;;;;;
2022/04/10 10:21:54;;;;;;;;;7.25;6.00;;;;;12.41;40.22;101847.97;5823867;24;45997;-89
2022/04/10 10:24:25;;;;;;;;;9.75;8.50;;;;;12.45;39.90;101842.72;5867054;24;45557;-87
2022/04/10 10:27:52;;;;;;;;;6.75;5.50;;;;;12.51;39.57;101836.56;6107498;22;45533;-86
2022/04/10 10:35:00;;;;;;;;;6.00;6.00;;;;;12.65;38.86;101820.84;6157174;23;45331;-84
2022/04/10 11:17:27;;;;;;;;;4.00;4.00;;;;;14.37;34.86;101768.13;5914147;23;45559;-90
2022/04/10 11:20:25;;;;;;;;;5.75;5.75;;;;;14.56;33.97;101770.72;5976773;23;45441;-91
2022/04/10 11:33:09;;;;;;;;;;;;;;;;;;;;;
2022/04/10 11:35:56;;;;;;;;;6.75;6.75;;;;;14.98;33.41;101754.66;5950551;23;67842;-90
2022/04/10 11:38:32;;;;;;;;;8.00;8.00;;;;;15.28;33.53;101761.53;6010718;23;45637;-90
2022/04/10 11:41:01;;;;;;;;;7.75;5.25;;;;;15.37;33.01;101748.22;6043396;23;47643;-87
2022/04/10 11:43:30;;;;;;;;;8.50;6.00;;;;;15.48;33.25;101740.16;6157290;22;45376;-83
2022/04/10 11:46:13;;;;;;;;;5.25;5.25;;;;;15.60;32.15;101745.34;6245760;22;45551;-88
2022/04/10 11:48:39;;;;;;;;;8.00;5.75;;;;;15.59;32.24;101740.09;6220913;22;45387;-87
2022/04/10 12:01:49;;;;;;;;;;;;;;;;;;;;;
2022/04/10 12:04:52;;;;;;;;;6.25;5.75;;;;;16.34;31.51;101718.09;6122411;23;74999;-91
2022/04/10 12:07:39;;;;;;;;;;;;;;;;;;;;;
2022/04/10 12:10:23;;;;;;;;;7.50;6.50;;;;;16.45;29.19;101716.19;6248176;22;67668;-90
2022/04/10 12:12:49;;;;;;;;;6.00;5.50;;;;;16.40;30.21;101694.09;6221248;22;45478;-89
2022/04/10 12:16:16;;;;;;;;;;;;;;;;;;;;;
2022/04/10 12:18:56;;;;;;;;;7.50;6.75;;;;;16.61;30.51;101673.44;6203666;22;72413;-89
2022/04/10 12:21:24;;;;;;;;;8.00;7.25;;;;;16.80;30.10;101688.28;6221285;22;45241;-89
2022/04/10 12:24:03;;;;;;;;;7.00;7.00;;;;;16.91;30.12;101678.34;6250064;22;45415;-89
2022/04/10 12:26:29;;;;;;;;;7.25;7.25;;;;;16.91;30.22;101672.16;6218970;22;45634;-88
2022/04/10 12:28:59;;;;;;;;;7.50;7.00;;;;;17.07;29.15;101680.78;6221028;22;45671;-89
2022/04/10 12:31:42;;;;;;;;;;;;;;;;;;;;;
2022/04/10 12:34:15;;;;;;;;;6.75;5.00;;;;;17.10;29.72;101673.63;6276558;22;73135;-88
2022/04/10 12:37:07;;;;;;;;;;;;;;;;;;;;;
2022/04/10 12:39:34;;;;;;;;;3.50;3.50;;;;;17.14;29.50;101661.16;6277975;22;72338;-88
2022/04/10 12:42:26;;;;;;;;;6.25;6.25;;;;;17.30;29.34;101662.66;6282383;22;44782;-88
2022/04/10 12:45:19;;;;;;;;;9.00;7.00;;;;;17.46;28.92;101663.28;6261039;22;45406;-89
2022/04/10 12:47:47;;;;;;;;;5.75;4.75;;;;;17.49;28.95;101662.34;6279440;22;45776;-89
2022/04/10 12:50:18;;;;;;;;;8.75;7.25;;;;;17.65;29.21;101663.84;6307558;22;45382;-89
2022/04/10 12:52:55;;;;;;;;;8.25;8.25;;;;;17.77;28.81;101650.28;6303600;22;45283;-88
2022/04/10 12:55:38;;;;;;;;;7.00;7.00;;;;;17.90;28.77;101644.75;6280860;22;45193;-87
2022/04/10 12:58:19;;;;;;;;;;;;;;;;;;;;;
2022/04/10 13:01:08;;;;;;;;;;;;;;;;;;;;;
2022/04/10 13:03:49;;;;;;;;;6.00;6.00;;;;;18.34;28.49;101643.84;6280389;22;68340;-89
2022/04/10 13:06:19;;;;;;;;;6.75;6.75;;;;;18.51;27.75;101643.47;6277085;22;45491;-88
2022/04/10 13:08:45;;;;;;;;;7.00;6.00;;;;;18.64;27.61;101633.41;6278927;22;45702;-89
2022/04/10 13:11:40;;;;;;;;;5.25;5.25;;;;;18.78;27.82;101627.78;6277573;22;45434;-89
2022/04/10 13:14:15;;;;;;;;;8.75;7.75;;;;;18.84;27.56;101628.50;6272577;22;45484;-88
2022/04/10 13:16:54;;;;;;;;;8.00;8.00;;;;;18.94;26.89;101634.50;6278870;22;45320;-88
2022/04/10 13:19:33;;;;;;;;;7.75;7.75;;;;;18.89;26.40;101629.25;6302196;22;47357;-88
2022/04/10 13:22:29;;;;;;;;;;;;;;;;;;;;;
2022/04/10 13:25:20;;;;;;;;;6.50;5.75;;;;;19.14;27.17;101615.34;6277270;22;68957;-89
2022/04/10 13:27:54;;;;;;;;;7.00;6.75;;;;;19.25;27.41;101599.91;6278429;22;45410;-90
2022/04/10 13:30:37;;;;;;;;;5.25;5.25;;;;;19.48;27.07;101609.97;6276510;22;47290;-89
2022/04/10 13:33:11;;;;;;;;;9.00;7.00;;;;;19.53;27.07;101608.06;6306384;22;45405;-89
2022/04/10 13:35:39;;;;;;;;;6.50;6.50;;;;;19.58;27.00;101594.59;6278860;22;45347;-90
2022/04/10 13:38:05;;;;;;;;;8.00;8.00;;;;;19.86;26.85;101607.19;6254253;22;45510;-89
2022/04/10 13:40:36;;;;;;;;;6.25;6.25;;;;;19.96;26.89;101596.19;6288851;22;46458;-90
2022/04/10 13:43:05;;;;;;;;;9.00;7.75;;;;;20.12;27.07;101599.28;6320562;22;44779;-90
2022/04/10 13:45:30;;;;;;;;;9.50;8.50;;;;;20.21;26.50;101583.00;6264779;22;45176;-89
2022/04/10 13:47:58;;;;;;;;;11.00;8.75;;;;;20.53;26.77;101583.78;6283097;22;44744;-86
2022/04/10 13:50:26;;;;;;;;;3.00;3.00;;;;;20.85;26.71;101590.81;6252202;22;46921;-90
2022/04/10 13:52:52;;;;;;;;;6.75;6.75;;;;;21.20;25.83;101595.88;6282443;22;45284;-89
2022/04/10 13:55:49;;;;;;;;;8.00;7.00;;;;;21.29;25.51;101576.81;6278237;22;45441;-93
2022/04/10 14:05:07;;;;;;;;;;;;;;;;;;;;;
2022/04/10 14:07:54;;;;;;;;;6.00;5.00;;;;;22.40;23.20;101558.41;6278596;22;68757;-90
2022/04/10 14:14:17;;;;;;;;;6.33;6.33;;;;;24.60;23.26;101554.94;6155620;23;45492;-90
2022/04/10 14:20:40;;;;;;;;;6.00;6.00;;;;;29.60;21.07;101531.31;6112234;23;45321;-93
2022/04/10 14:26:38;;;;;;;;;9.33;6.33;;;;;33.46;16.95;101523.38;6039244;23;46509;-87
2022/04/10 14:29:09;;;;;;;;;6.00;6.00;;;;;34.01;17.20;101522.06;6099503;23;45727;-88
2022/04/10 14:31:38;;;;;;;;;5.33;5.33;;;;;34.18;16.54;101509.63;6224280;22;45630;-91
2022/04/10 14:34:06;;;;;;;;;6.00;6.00;;;;;33.91;16.17;101518.44;6278595;22;45363;-91
2022/04/10 14:36:34;;;;;;;;;5.67;5.67;;;;;33.82;16.02;101517.41;6279583;22;47047;-90
2022/04/10 14:39:00;;;;;;;;;4.33;4.33;;;;;33.87;16.23;101497.00;6303677;22;45713;-91
2022/04/10 14:41:26;;;;;;;;;6.00;6.00;;;;;34.25;15.42;101515.41;6254417;22;45217;-91
2022/04/10 14:43:54;;;;;;;;;4.67;4.67;;;;;34.60;15.44;101494.88;6288613;22;45348;-91
2022/04/10 14:46:22;;;;;;;;;6.00;4.33;;;;;35.33;14.75;101493.31;6287126;22;46768;-92
2022/04/10 14:48:48;;;;;;;;;4.33;4.00;;;;;36.26;15.18;101492.50;6258069;22;45659;-90
2022/04/10 14:51:14;;;;;;;;;7.33;6.67;;;;;37.31;14.51;101484.28;6275884;22;45592;-92
2022/04/10 14:53:41;;;;;;;;;5.33;4.33;;;;;38.29;14.06;101494.00;6252729;22;44900;-92
2022/04/10 14:56:10;;;;;;;;;4.67;4.00;;;;;38.75;13.03;101476.00;6272671;22;47156;-88
2022/04/10 14:58:36;;;;;;;;;4.33;4.33;;;;;38.71;12.46;101471.88;6247976;22;45434;-89
2022/04/10 15:01:03;;;;;;;;;4.33;4.00;;;;;38.59;12.60;101465.00;6274654;22;45419;-89
2022/04/10 15:03:31;;;;;;;;;5.33;5.33;;;;;38.32;12.26;101466.16;6247610;22;45674;-88
2022/04/10 15:05:56;;;;;;;;;3.00;3.00;;;;;37.83;12.13;101474.28;6251170;22;47748;-88
2022/04/10 15:08:22;;;;;;;;;5.00;5.00;;;;;37.44;12.52;101461.03;6249678;22;45510;-88
2022/04/10 15:10:48;;;;;;;;;4.67;4.67;;;;;37.25;12.97;101462.97;6276665;22;45726;-89
2022/04/10 15:13:14;;;;;;;;;8.67;5.67;;;;;37.11;12.51;101452.59;6250705;22;45462;-88
2022/04/10 15:15:45;;;;;;;;;6.00;6.00;;;;;36.96;12.52;101449.53;6273545;22;47102;-88
2022/04/10 15:18:10;;;;;;;;;4.67;4.67;;;;;36.11;12.13;101437.31;6250950;22;45807;-88
2022/04/10 15:20:36;;;;;;;;;5.67;5.67;;;;;35.03;12.78;101436.06;6273368;22;45433;-89
2022/04/10 15:23:03;;;;;;;;;3.67;3.67;;;;;34.26;12.77;101435.09;6251688;22;45317;-90
2022/04/10 15:25:39;;;;;;;;;3.67;3.67;;;;;33.72;13.15;101430.97;6252311;22;45978;-89
2022/04/10 15:28:07;;;;;;;;;3.00;3.00;;;;;33.48;13.49;101429.41;6251782;22;45490;-89
2022/04/10 15:30:36;;;;;;;;;4.00;4.00;;;;;33.60;13.74;101431.09;6251149;22;45641;-87
2022/04/10 15:33:02;;;;;;;;;3.00;3.00;;;;;33.67;14.01;101416.84;6275323;22;45458;-89
2022/04/10 15:35:27;;;;;;;;;4.00;4.00;;;;;34.16;13.85;101426.91;6273852;22;47237;-89
2022/04/10 15:37:55;;;;;;;;;4.67;4.67;;;;;34.68;14.00;101423.88;6278789;22;45496;-90
2022/04/10 15:40:23;;;;;;;;;6.33;5.33;;;;;35.08;13.43;101429.16;6277137;22;45371;-91
2022/04/10 15:42:52;;;;;;;;;3.00;3.00;;;;;35.48;11.70;101422.50;6277151;22;46095;-90
2022/04/10 15:45:17;;;;;;;;;4.00;4.00;;;;;36.07;12.02;101431.28;6279953;22;46268;-90
2022/04/10 15:47:43;;;;;;;;;4.67;4.67;;;;;36.57;12.19;101421.63;6301826;22;45764;-91
2022/04/10 15:50:10;;;;;;;;;4.00;4.00;;;;;36.94;12.09;101426.88;6277164;22;45750;-89
2022/04/10 15:52:41;;;;;;;;;5.00;4.67;;;;;36.76;11.87;101413.22;6277089;22;45427;-88
2022/04/10 15:55:14;;;;;;;;;6.67;5.33;;;;;36.37;11.76;101420.94;6247216;22;47178;-89
2022/04/10 15:57:49;;;;;;;;;5.00;5.00;;;;;36.15;12.17;101409.44;6279930;22;45337;-91
2022/04/10 16:00:15;;;;;;;;;3.33;3.33;;;;;36.12;11.92;101412.50;6277043;22;45288;-92
2022/04/10 16:02:45;;;;;;;;;3.67;3.67;;;;;36.38;12.46;101408.94;6305637;22;45428;-90
2022/04/10 16:05:16;;;;;;;;;4.67;2.67;;;;;37.13;12.06;101408.50;6302839;22;45899;-92
2022/04/10 16:07:43;;;;;;;;;1.33;1.33;;;;;37.88;11.96;101403.13;6251818;22;45471;-91
2022/04/10 16:10:10;;;;;;;;;3.67;3.67;;;;;38.02;11.82;101390.66;6281651;22;45334;-93
2022/04/10 16:12:40;;;;;;;;;4.00;4.00;;;;;37.43;11.29;101401.63;6303361;22;45504;-92
2022/04/10 16:15:25;;;;;;;;;5.00;2.67;;;;;36.38;11.61;101401.59;6276786;22;47178;-94
2022/04/10 16:17:51;;;;;;;;;4.00;4.00;;;;;34.94;12.43;101391.28;6280333;22;45386;-94
2022/04/10 16:20:16;;;;;;;;;2.00;2.00;;;;;33.75;12.69;101389.69;6281264;22;45384;-94
2022/04/10 16:22:47;;;;;;;;;4.00;4.00;;;;;32.85;13.21;101391.31;6258668;22;45791;-95
2022/04/10 16:25:13;;;;;;;;;3.33;3.33;;;;;32.00;13.04;101392.22;6309174;22;46816;-95
2022/04/10 16:30:34;;;;;;;;;3.00;2.00;;;;;30.82;14.16;101388.19;6288123;22;45343;-96
2022/04/10 16:33:14;;;;;;;;;;;;;;;;;;;;;
2022/04/10 16:35:43;;;;;;;;;4.67;4.67;;;;;29.37;14.90;101379.16;6287171;22;74131;-95
2022/04/10 16:38:16;;;;;;;;;2.00;2.00;;;;;28.86;15.47;101378.31;6282245;22;44713;-95
2022/04/10 16:40:43;;;;;;;;;4.00;4.00;;;;;28.49;15.71;101367.34;6310743;22;45408;-95
2022/04/10 16:43:17;;;;;;;;;5.00;4.00;;;;;28.05;16.13;101363.97;6312531;22;45493;-94
2022/04/10 16:45:45;;;;;;;;;4.00;4.00;;;;;27.68;16.74;101373.63;6286713;22;47609;-93
2022/04/10 16:48:11;;;;;;;;;2.33;2.33;;;;;27.40;16.75;101371.84;6301651;22;45575;-84
2022/04/10 16:50:59;;;;;;;;;3.00;3.00;;;;;26.93;17.03;101360.34;6259317;22;45377;-90
2022/04/10 16:53:24;;;;;;;;;3.67;3.00;;;;;26.36;17.24;101369.22;6288157;22;45407;-87
2022/04/10 16:55:50;;;;;;;;;3.67;3.67;;;;;26.05;17.70;101358.50;6256344;22;46623;-91
2022/04/10 16:58:18;;;;;;;;;4.67;4.67;;;;;25.86;17.90;101369.50;6279612;22;45292;-89
2022/04/10 17:00:44;;;;;;;;;4.00;3.33;;;;;25.34;18.05;101369.72;6253806;22;45269;-93
2022/04/10 17:03:12;;;;;;;;;4.00;4.00;;;;;24.93;18.42;101379.06;6283572;22;44764;-90
2022/04/10 17:05:49;;;;;;;;;4.00;3.00;;;;;24.38;18.94;101374.75;6279919;22;46890;-89
2022/04/10 17:08:15;;;;;;;;;2.00;2.00;;;;;23.63;19.59;101375.78;6253062;22;45415;-90
2022/04/10 17:10:43;;;;;;;;;2.67;2.67;;;;;22.97;20.31;101370.78;6253705;22;45364;-90
2022/04/10 17:13:11;;;;;;;;;4.00;4.00;;;;;22.63;20.51;101371.38;6251000;22;45535;-91
2022/04/10 17:15:37;;;;;;;;;5.00;4.00;;;;;22.29;20.76;101367.47;6282568;22;47320;-91
2022/04/10 17:18:06;;;;;;;;;5.00;5.00;;;;;21.99;21.26;101370.47;6278599;22;45401;-92
2022/04/10 17:20:32;;;;;;;;;4.00;4.00;;;;;21.70;21.60;101376.16;6279019;22;45265;-94
2022/04/10 17:22:58;;;;;;;;;3.67;3.67;;;;;21.30;22.03;101373.22;6312962;22;45266;-94
2022/04/10 17:25:26;;;;;;;;;3.00;3.00;;;;;20.89;22.61;101362.25;6279976;22;46929;-94
2022/04/10 17:27:52;;;;;;;;;5.00;5.00;;;;;20.62;23.17;101377.50;6283338;22;45145;-95
2022/04/10 17:30:18;;;;;;;;;3.67;3.67;;;;;20.36;23.40;101386.38;6286797;22;45463;-93
2022/04/10 17:32:57;;;;;;;;;5.00;5.00;;;;;20.04;23.42;101379.44;6249180;22;45450;-89
2022/04/10 17:35:22;;;;;;;;;7.00;4.33;;;;;19.55;24.14;101372.97;6284051;22;45203;-94
2022/04/10 17:37:52;;;;;;;;;4.33;4.33;;;;;19.24;25.00;101373.88;6260774;22;45240;-93
2022/04/10 17:40:17;;;;;;;;;5.75;5.00;;;;;18.86;25.02;101369.66;6265562;22;44797;-93
2022/04/10 17:42:43;;;;;;;;;5.50;5.00;;;;;18.51;25.43;101355.47;6254288;22;45429;-92
2022/04/10 17:45:14;;;;;;;;;4.67;4.67;;;;;18.38;25.75;101370.91;6287648;22;47111;-94
2022/04/10 17:47:59;;;;;;;;;;;;;;;;;;;;;
2022/04/10 17:50:25;;;;;;;;;7.50;7.50;;;;;18.02;26.62;101364.75;6290041;22;67091;-94
2022/04/10 17:52:51;;;;;;;;;8.00;8.00;;;;;17.88;26.82;101373.03;6287181;22;45106;-95
2022/04/10 17:55:30;;;;;;;;;;;;;;;;;;;;;
2022/04/10 17:58:00;;;;;;;;;7.00;6.50;;;;;17.46;27.03;101372.22;6288232;22;71949;-93
2022/04/10 18:00:26;;;;;;;;;8.50;8.25;;;;;17.21;27.69;101380.72;6307429;22;44716;-91
2022/04/10 18:02:52;;;;;;;;;5.00;5.00;;;;;16.85;27.92;101358.44;6258939;22;45320;-93
2022/04/10 18:05:17;;;;;;;;;8.75;6.00;;;;;16.62;27.62;101362.34;6253329;22;46910;-94
2022/04/10 18:07:46;;;;;;;;;7.25;6.50;;;;;16.56;28.29;101377.56;6284519;22;45585;-91
2022/04/10 18:10:12;;;;;;;;;7.25;7.25;;;;;16.34;28.45;101371.75;6284787;22;45218;-89
2022/04/10 18:12:41;;;;;;;;;6.00;6.00;;;;;16.18;28.57;101361.38;6311834;22;45392;-93
2022/04/10 18:15:07;;;;;;;;;5.00;5.00;;;;;16.09;28.72;101362.41;6283287;22;47129;-90
2022/04/10 18:17:33;;;;;;;;;6.75;5.75;;;;;15.85;29.57;101357.47;6286611;22;46245;-93
2022/04/10 18:19:59;;;;;;;;;6.50;6.50;;;;;15.80;29.37;101360.22;6284912;22;45415;-93
2022/04/10 18:22:28;;;;;;;;;5.50;5.00;;;;;15.69;29.68;101364.84;6310065;22;45358;-91
2022/04/10 18:24:54;;;;;;;;;9.00;7.00;;;;;15.51;30.73;101350.00;6280810;22;46941;-91
2022/04/10 18:27:29;;;;;;;;;11.75;8.50;;;;;15.39;30.66;101356.34;6283805;22;45387;-91
2022/04/10 18:33:49;;;;;;;;;6.75;5.75;;;;;15.17;31.53;101360.19;6065226;22;45352;-90
2022/04/10 18:36:18;;;;;;;;;9.25;9.00;;;;;15.08;31.42;101366.50;6281809;22;45436;-90
2022/04/10 18:39:00;;;;;;;;;7.00;7.00;;;;;15.03;31.53;101360.38;6311776;22;45386;-90
2022/04/10 18:41:26;;;;;;;;;6.25;6.25;;;;;14.90;31.67;101353.47;6306606;22;45510;-91
2022/04/10 18:43:52;;;;;;;;;7.00;7.00;;;;;14.84;32.09;101358.84;6259425;22;44779;-91
2022/04/10 18:46:18;;;;;;;;;11.50;11.00;;;;;14.74;32.39;101356.28;6256688;22;46852;-91
2022/04/10 18:51:36;;;;;;;;;10.50;9.00;;;;;14.52;32.62;101346.78;6295281;22;44771;-92
2022/04/10 18:54:10;;;;;;;;;6.00;6.00;;;;;14.50;32.98;101352.09;6294854;22;45512;-91
2022/04/10 18:56:46;;;;;;;;;8.00;8.00;;;;;14.41;33.23;101354.84;6258232;22;46828;-89
2022/04/10 19:03:44;;;;;;;;;;;;;;;;;;;;;
2022/04/10 19:06:13;;;;;;;;;9.00;7.50;;;;;14.29;33.69;101353.16;6141361;22;73216;-88
2022/04/10 19:08:40;;;;;;;;;7.75;7.50;;;;;14.25;33.56;101340.88;6255345;22;47240;-89
2022/04/10 19:11:09;;;;;;;;;11.50;11.50;;;;;14.24;34.01;101349.69;6277171;22;45397;-88
2022/04/10 19:13:46;;;;;;;;;8.50;8.50;;;;;14.20;33.99;101349.75;6279277;22;45414;-90
2022/04/10 19:16:16;;;;;;;;;6.25;6.25;;;;;14.22;34.24;101362.09;6308488;22;45549;-89
2022/04/10 19:18:51;;;;;;;;;7.00;6.00;;;;;14.23;34.28;101358.53;6279716;22;45358;-89
2022/04/10 19:21:17;;;;;;;;;10.75;10.50;;;;;14.06;34.80;101340.16;6278860;22;45317;-88
2022/04/10 19:23:52;;;;;;;;;6.00;6.00;;;;;14.16;34.35;101355.94;6253840;22;45493;-86
2022/04/10 19:26:23;;;;;;;;;8.00;7.25;;;;;14.13;35.01;101348.91;6286834;22;45425;-92
2022/04/10 19:28:49;;;;;;;;;6.75;6.75;;;;;14.07;34.95;101341.03;6311282;22;48146;-89
2022/04/10 19:31:15;;;;;;;;;8.25;8.25;;;;;14.01;35.04;101341.97;6256257;22;45653;-88
2022/04/10 19:33:42;;;;;;;;;8.00;8.00;;;;;14.09;34.86;101360.44;6280289;22;45346;-87
2022/04/10 19:36:11;;;;;;;;;6.00;6.00;;;;;14.04;35.26;101364.88;6308484;22;45298;-87
2022/04/10 19:38:39;;;;;;;;;11.25;9.25;;;;;14.04;34.93;101372.81;6303893;22;47112;-88
2022/04/10 19:41:05;;;;;;;;;9.25;8.00;;;;;14.00;34.88;101357.84;6281513;22;45497;-89
2022/04/10 19:43:38;;;;;;;;;12.50;9.50;;;;;13.96;35.51;101375.53;6282662;22;45359;-91
2022/04/10 19:46:05;;;;;;;;;6.50;6.50;;;;;13.90;35.79;101370.28;6283645;22;44820;-86
2022/04/10 19:48:31;;;;;;;;;9.50;9.50;;;;;13.93;35.87;101374.69;6280568;22;46882;-91
2022/04/10 19:51:07;;;;;;;;;9.00;9.00;;;;;13.81;35.55;101355.31;6307411;22;45363;-88
2022/04/10 19:53:39;;;;;;;;;9.25;7.50;;;;;13.89;35.37;101371.16;6304516;22;45407;-88
2022/04/10 19:56:19;;;;;;;;;;;;;;;;;;;;;
2022/04/10 19:58:52;;;;;;;;;9.25;8.25;;;;;13.79;35.78;101365.06;6286803;22;74625;-87
2022/04/10 20:01:17;;;;;;;;;11.50;9.75;;;;;13.79;35.98;101373.00;6285617;22;45344;-88
2022/04/10 20:03:43;;;;;;;;;7.00;6.50;;;;;13.81;36.09;101372.97;6279113;22;45366;-88
2022/04/10 20:06:10;;;;;;;;;7.00;5.50;;;;;13.76;36.48;101365.06;6257619;22;45640;-92
2022/04/10 20:08:38;;;;;;;;;10.50;9.25;;;;;13.74;35.99;101365.97;6303104;22;46942;-88
2022/04/10 20:11:06;;;;;;;;;7.25;7.25;;;;;13.68;36.43;101351.00;6277157;22;45327;-89
2022/04/10 20:13:34;;;;;;;;;10.00;10.00;;;;;13.62;36.47;101353.72;6302875;22;45280;-89
2022/04/10 20:16:05;;;;;;;;;8.00;7.25;;;;;13.59;36.63;101349.31;6304698;22;45356;-89
2022/04/10 20:18:35;;;;;;;;;9.50;7.50;;;;;13.62;36.86;101351.06;6281329;22;45340;-90
2022/04/10 20:21:07;;;;;;;;;7.00;6.50;;;;;13.57;37.08;101355.50;6303422;22;45926;-89
2022/04/10 20:23:35;;;;;;;;;10.25;10.25;;;;;13.55;37.15;101350.25;6281346;22;45628;-89
2022/04/10 20:26:01;;;;;;;;;11.75;9.00;;;;;13.45;37.46;101335.31;6278896;22;45671;-89
2022/04/10 20:28:36;;;;;;;;;9.25;9.25;;;;;13.40;36.96;101329.16;6252279;22;48185;-87
2022/04/10 20:31:01;;;;;;;;;12.50;12.00;;;;;13.39;37.22;101333.56;6249393;22;45470;-88
2022/04/10 20:33:30;;;;;;;;;10.25;10.00;;;;;13.36;37.54;101333.56;6303709;22;45383;-87
2022/04/10 20:35:58;;;;;;;;;9.00;9.00;;;;;13.41;37.52;101341.47;6276819;22;45346;-86
2022/04/10 20:38:27;;;;;;;;;10.00;9.00;;;;;13.33;37.47;101340.66;6303252;22;47249;-84
2022/04/10 20:40:52;;;;;;;;;10.25;8.50;;;;;13.33;37.72;101353.88;6251622;22;45474;-88
2022/04/10 20:43:22;;;;;;;;;9.25;9.25;;;;;13.29;37.81;101349.50;6275691;22;45390;-86
2022/04/10 20:45:54;;;;;;;;;12.75;9.25;;;;;13.16;37.75;101341.59;6251357;22;45696;-87
2022/04/10 20:48:22;;;;;;;;;10.00;9.00;;;;;13.14;37.81;101338.06;6249526;22;46950;-81
